sensor_id;sensor_type;location;lat;lon;timestamp;P1;durP1;ratioP1;P2;durP2;ratioP2
13469;SDS011;6807;48.682;9.032;2023-02-21T00:00:43;2.55;;;2.10;;
13469;SDS011;6807;48.682;9.032;2023-02-21T00:03:28;5.68;;;2.42;;
13469;SDS011;6807;48.682;9.032;2023-02-21T00:06:14;2.75;;;2.20;;
13469;SDS011;6807;48.682;9.032;2023-02-21T00:08:59;3.00;;;2.28;;
13469;SDS011;6807;48.682;9.032;2023-02-21T00:11:43;3.17;;;2.22;;
13469;SDS011;6807;48.682;9.032;2023-02-21T00:14:28;3.33;;;2.80;;
13469;SDS011;6807;48.682;9.032;2023-02-21T00:17:13;5.57;;;2.75;;
13469;SDS011;6807;48.682;9.032;2023-02-21T00:19:57;3.05;;;2.30;;
13469;SDS011;6807;48.682;9.032;2023-02-21T00:22:43;4.10;;;2.53;;
13469;SDS011;6807;48.682;9.032;2023-02-21T00:25:28;2.55;;;2.00;;
13469;SDS011;6807;48.682;9.032;2023-02-21T00:28:13;3.20;;;2.40;;
13469;SDS011;6807;48.682;9.032;2023-02-21T00:30:58;2.78;;;2.17;;
13469;SDS011;6807;48.682;9.032;2023-02-21T00:33:42;3.08;;;2.42;;
13469;SDS011;6807;48.682;9.032;2023-02-21T00:36:27;3.47;;;2.40;;
13469;SDS011;6807;48.682;9.032;2023-02-21T00:39:13;2.50;;;2.30;;
13469;SDS011;6807;48.682;9.032;2023-02-21T00:41:58;8.55;;;2.90;;
13469;SDS011;6807;48.682;9.032;2023-02-21T00:44:43;8.40;;;2.35;;
13469;SDS011;6807;48.682;9.032;2023-02-21T00:47:28;3.28;;;2.63;;
13469;SDS011;6807;48.682;9.032;2023-02-21T00:50:12;3.85;;;2.30;;
13469;SDS011;6807;48.682;9.032;2023-02-21T00:52:58;5.65;;;2.42;;
13469;SDS011;6807;48.682;9.032;2023-02-21T00:55:44;3.60;;;2.50;;
13469;SDS011;6807;48.682;9.032;2023-02-21T00:58:29;6.32;;;2.45;;
13469;SDS011;6807;48.682;9.032;2023-02-21T01:01:14;4.10;;;2.30;;
13469;SDS011;6807;48.682;9.032;2023-02-21T01:03:59;2.63;;;2.42;;
13469;SDS011;6807;48.682;9.032;2023-02-21T01:06:44;6.55;;;2.47;;
13469;SDS011;6807;48.682;9.032;2023-02-21T01:09:29;4.18;;;2.38;;
13469;SDS011;6807;48.682;9.032;2023-02-21T01:12:15;6.65;;;2.33;;
13469;SDS011;6807;48.682;9.032;2023-02-21T01:15:00;4.28;;;2.72;;
13469;SDS011;6807;48.682;9.032;2023-02-21T01:17:44;3.80;;;2.60;;
13469;SDS011;6807;48.682;9.032;2023-02-21T01:20:29;2.45;;;2.25;;
13469;SDS011;6807;48.682;9.032;2023-02-21T01:23:14;2.30;;;2.05;;
13469;SDS011;6807;48.682;9.032;2023-02-21T01:25:58;4.38;;;2.30;;
13469;SDS011;6807;48.682;9.032;2023-02-21T01:28:44;2.53;;;2.28;;
13469;SDS011;6807;48.682;9.032;2023-02-21T01:31:30;3.35;;;2.53;;
13469;SDS011;6807;48.682;9.032;2023-02-21T01:34:16;3.08;;;2.22;;
13469;SDS011;6807;48.682;9.032;2023-02-21T01:37:01;3.70;;;2.40;;
13469;SDS011;6807;48.682;9.032;2023-02-21T01:39:46;2.83;;;2.25;;
13469;SDS011;6807;48.682;9.032;2023-02-21T01:42:31;3.42;;;2.78;;
13469;SDS011;6807;48.682;9.032;2023-02-21T01:48:28;3.15;;;2.40;;
13469;SDS011;6807;48.682;9.032;2023-02-21T01:51:15;4.13;;;2.13;;
13469;SDS011;6807;48.682;9.032;2023-02-21T01:54:01;5.63;;;2.50;;
13469;SDS011;6807;48.682;9.032;2023-02-21T01:56:46;7.43;;;2.58;;
13469;SDS011;6807;48.682;9.032;2023-02-21T01:59:31;3.22;;;2.67;;
13469;SDS011;6807;48.682;9.032;2023-02-21T02:02:17;6.60;;;2.50;;
13469;SDS011;6807;48.682;9.032;2023-02-21T02:05:04;4.65;;;2.60;;
13469;SDS011;6807;48.682;9.032;2023-02-21T02:07:52;3.00;;;2.03;;
13469;SDS011;6807;48.682;9.032;2023-02-21T02:10:38;8.20;;;2.63;;
13469;SDS011;6807;48.682;9.032;2023-02-21T02:13:25;5.10;;;2.60;;
13469;SDS011;6807;48.682;9.032;2023-02-21T02:15:57;3.10;;;2.72;;
13469;SDS011;6807;48.682;9.032;2023-02-21T02:18:31;5.60;;;2.50;;
13469;SDS011;6807;48.682;9.032;2023-02-21T02:21:18;3.58;;;2.42;;
13469;SDS011;6807;48.682;9.032;2023-02-21T02:23:56;5.28;;;2.70;;
13469;SDS011;6807;48.682;9.032;2023-02-21T02:26:39;2.83;;;2.15;;
13469;SDS011;6807;48.682;9.032;2023-02-21T02:29:14;2.42;;;2.22;;
13469;SDS011;6807;48.682;9.032;2023-02-21T02:34:32;3.63;;;2.20;;
13469;SDS011;6807;48.682;9.032;2023-02-21T02:37:08;4.95;;;2.53;;
13469;SDS011;6807;48.682;9.032;2023-02-21T02:39:43;3.53;;;2.05;;
13469;SDS011;6807;48.682;9.032;2023-02-21T02:42:16;7.03;;;2.45;;
13469;SDS011;6807;48.682;9.032;2023-02-21T02:44:47;5.55;;;2.40;;
13469;SDS011;6807;48.682;9.032;2023-02-21T02:47:17;5.05;;;2.42;;
13469;SDS011;6807;48.682;9.032;2023-02-21T02:49:46;5.47;;;2.60;;
13469;SDS011;6807;48.682;9.032;2023-02-21T02:52:15;3.95;;;2.75;;
13469;SDS011;6807;48.682;9.032;2023-02-21T02:54:42;3.00;;;2.15;;
13469;SDS011;6807;48.682;9.032;2023-02-21T02:57:10;4.50;;;2.30;;
13469;SDS011;6807;48.682;9.032;2023-02-21T02:59:38;3.50;;;2.30;;
13469;SDS011;6807;48.682;9.032;2023-02-21T03:02:16;3.70;;;2.58;;
13469;SDS011;6807;48.682;9.032;2023-02-21T03:04:56;2.58;;;2.30;;
13469;SDS011;6807;48.682;9.032;2023-02-21T03:07:37;3.53;;;2.95;;
13469;SDS011;6807;48.682;9.032;2023-02-21T03:10:12;3.72;;;2.13;;
13469;SDS011;6807;48.682;9.032;2023-02-21T03:12:42;2.50;;;2.30;;
13469;SDS011;6807;48.682;9.032;2023-02-21T03:15:15;5.00;;;2.63;;
13469;SDS011;6807;48.682;9.032;2023-02-21T03:17:44;2.80;;;2.50;;
13469;SDS011;6807;48.682;9.032;2023-02-21T03:20:14;4.80;;;2.75;;
13469;SDS011;6807;48.682;9.032;2023-02-21T03:22:42;2.58;;;2.22;;
13469;SDS011;6807;48.682;9.032;2023-02-21T03:25:10;2.40;;;2.20;;
13469;SDS011;6807;48.682;9.032;2023-02-21T03:27:39;2.20;;;2.00;;
13469;SDS011;6807;48.682;9.032;2023-02-21T03:30:08;3.13;;;2.50;;
13469;SDS011;6807;48.682;9.032;2023-02-21T03:32:36;2.53;;;2.10;;
13469;SDS011;6807;48.682;9.032;2023-02-21T03:35:09;2.50;;;2.30;;
13469;SDS011;6807;48.682;9.032;2023-02-21T03:37:39;3.20;;;2.40;;
13469;SDS011;6807;48.682;9.032;2023-02-21T03:40:08;2.45;;;2.20;;
13469;SDS011;6807;48.682;9.032;2023-02-21T03:42:36;3.08;;;2.42;;
13469;SDS011;6807;48.682;9.032;2023-02-21T03:45:03;2.53;;;2.33;;
13469;SDS011;6807;48.682;9.032;2023-02-21T03:47:31;1.90;;;1.80;;
13469;SDS011;6807;48.682;9.032;2023-02-21T03:49:59;3.53;;;2.67;;
13469;SDS011;6807;48.682;9.032;2023-02-21T03:52:26;3.53;;;2.28;;
13469;SDS011;6807;48.682;9.032;2023-02-21T03:54:57;2.65;;;2.45;;
13469;SDS011;6807;48.682;9.032;2023-02-21T03:57:25;4.18;;;2.47;;
13469;SDS011;6807;48.682;9.032;2023-02-21T03:59:52;3.45;;;2.40;;
13469;SDS011;6807;48.682;9.032;2023-02-21T04:02:21;5.85;;;2.20;;
13469;SDS011;6807;48.682;9.032;2023-02-21T04:04:50;2.78;;;2.25;;
13469;SDS011;6807;48.682;9.032;2023-02-21T04:07:17;5.15;;;2.47;;
13469;SDS011;6807;48.682;9.032;2023-02-21T04:09:45;3.38;;;2.40;;
13469;SDS011;6807;48.682;9.032;2023-02-21T04:12:14;6.47;;;2.22;;
13469;SDS011;6807;48.682;9.032;2023-02-21T04:14:41;4.07;;;2.67;;
13469;SDS011;6807;48.682;9.032;2023-02-21T04:17:08;4.95;;;2.75;;
13469;SDS011;6807;48.682;9.032;2023-02-21T04:19:35;2.92;;;2.50;;
13469;SDS011;6807;48.682;9.032;2023-02-21T04:22:04;4.13;;;2.55;;
13469;SDS011;6807;48.682;9.032;2023-02-21T04:24:31;3.55;;;2.97;;
13469;SDS011;6807;48.682;9.032;2023-02-21T04:26:58;2.85;;;2.55;;
13469;SDS011;6807;48.682;9.032;2023-02-21T04:29:27;2.60;;;2.30;;
13469;SDS011;6807;48.682;9.032;2023-02-21T04:31:54;2.50;;;2.22;;
13469;SDS011;6807;48.682;9.032;2023-02-21T04:34:22;2.80;;;2.25;;
13469;SDS011;6807;48.682;9.032;2023-02-21T04:36:49;2.95;;;2.42;;
13469;SDS011;6807;48.682;9.032;2023-02-21T04:39:16;3.28;;;2.28;;
13469;SDS011;6807;48.682;9.032;2023-02-21T04:41:44;4.00;;;2.63;;
13469;SDS011;6807;48.682;9.032;2023-02-21T04:44:11;3.50;;;2.75;;
13469;SDS011;6807;48.682;9.032;2023-02-21T04:46:40;7.15;;;2.58;;
13469;SDS011;6807;48.682;9.032;2023-02-21T04:49:08;5.20;;;2.50;;
13469;SDS011;6807;48.682;9.032;2023-02-21T04:51:36;2.97;;;2.67;;
13469;SDS011;6807;48.682;9.032;2023-02-21T04:54:03;3.17;;;2.53;;
13469;SDS011;6807;48.682;9.032;2023-02-21T04:56:31;3.45;;;2.10;;
13469;SDS011;6807;48.682;9.032;2023-02-21T04:58:59;3.95;;;3.58;;
13469;SDS011;6807;48.682;9.032;2023-02-21T05:01:26;6.82;;;2.70;;
13469;SDS011;6807;48.682;9.032;2023-02-21T05:03:56;2.65;;;2.40;;
13469;SDS011;6807;48.682;9.032;2023-02-21T05:06:24;6.00;;;3.28;;
13469;SDS011;6807;48.682;9.032;2023-02-21T05:08:52;4.93;;;2.95;;
13469;SDS011;6807;48.682;9.032;2023-02-21T05:11:20;2.88;;;2.22;;
13469;SDS011;6807;48.682;9.032;2023-02-21T05:13:47;6.25;;;2.47;;
13469;SDS011;6807;48.682;9.032;2023-02-21T05:16:15;4.82;;;2.80;;
13469;SDS011;6807;48.682;9.032;2023-02-21T05:18:42;3.83;;;2.90;;
13469;SDS011;6807;48.682;9.032;2023-02-21T05:21:11;3.33;;;2.80;;
13469;SDS011;6807;48.682;9.032;2023-02-21T05:23:40;3.58;;;2.70;;
13469;SDS011;6807;48.682;9.032;2023-02-21T05:26:26;2.65;;;2.35;;
13469;SDS011;6807;48.682;9.032;2023-02-21T05:29:01;7.10;;;2.85;;
13469;SDS011;6807;48.682;9.032;2023-02-21T05:31:29;3.17;;;2.60;;
13469;SDS011;6807;48.682;9.032;2023-02-21T05:33:56;3.33;;;2.60;;
13469;SDS011;6807;48.682;9.032;2023-02-21T05:36:26;8.88;;;2.83;;
13469;SDS011;6807;48.682;9.032;2023-02-21T05:38:54;3.85;;;2.65;;
13469;SDS011;6807;48.682;9.032;2023-02-21T05:41:21;8.20;;;2.72;;
13469;SDS011;6807;48.682;9.032;2023-02-21T05:43:49;7.03;;;3.22;;
13469;SDS011;6807;48.682;9.032;2023-02-21T05:46:17;4.15;;;2.50;;
13469;SDS011;6807;48.682;9.032;2023-02-21T05:48:46;3.25;;;2.85;;
13469;SDS011;6807;48.682;9.032;2023-02-21T05:51:14;4.07;;;2.95;;
13469;SDS011;6807;48.682;9.032;2023-02-21T05:53:43;4.72;;;2.72;;
13469;SDS011;6807;48.682;9.032;2023-02-21T05:56:10;3.63;;;2.85;;
13469;SDS011;6807;48.682;9.032;2023-02-21T05:58:39;5.05;;;2.95;;
13469;SDS011;6807;48.682;9.032;2023-02-21T06:01:06;3.85;;;2.85;;
13469;SDS011;6807;48.682;9.032;2023-02-21T06:03:34;2.95;;;2.58;;
13469;SDS011;6807;48.682;9.032;2023-02-21T06:06:01;3.35;;;2.75;;
13469;SDS011;6807;48.682;9.032;2023-02-21T06:08:28;5.00;;;3.22;;
13469;SDS011;6807;48.682;9.032;2023-02-21T06:10:57;6.15;;;3.00;;
13469;SDS011;6807;48.682;9.032;2023-02-21T06:13:24;8.93;;;2.85;;
13469;SDS011;6807;48.682;9.032;2023-02-21T06:15:51;3.95;;;2.80;;
13469;SDS011;6807;48.682;9.032;2023-02-21T06:18:19;3.72;;;3.10;;
13469;SDS011;6807;48.682;9.032;2023-02-21T06:20:46;5.38;;;3.40;;
13469;SDS011;6807;48.682;9.032;2023-02-21T06:23:13;6.13;;;3.15;;
13469;SDS011;6807;48.682;9.032;2023-02-21T06:25:44;6.75;;;3.05;;
13469;SDS011;6807;48.682;9.032;2023-02-21T06:28:14;4.93;;;2.90;;
13469;SDS011;6807;48.682;9.032;2023-02-21T06:30:42;4.10;;;3.22;;
13469;SDS011;6807;48.682;9.032;2023-02-21T06:33:10;3.17;;;2.60;;
13469;SDS011;6807;48.682;9.032;2023-02-21T06:35:37;5.53;;;3.00;;
13469;SDS011;6807;48.682;9.032;2023-02-21T07:00:38;7.47;;;5.10;;
13469;SDS011;6807;48.682;9.032;2023-02-21T07:03:05;7.72;;;4.05;;
13469;SDS011;6807;48.682;9.032;2023-02-21T07:05:36;8.00;;;3.90;;
13469;SDS011;6807;48.682;9.032;2023-02-21T07:08:08;8.45;;;4.18;;
13469;SDS011;6807;48.682;9.032;2023-02-21T07:10:36;6.60;;;3.65;;
13469;SDS011;6807;48.682;9.032;2023-02-21T07:13:03;5.50;;;3.67;;
13469;SDS011;6807;48.682;9.032;2023-02-21T07:15:31;6.82;;;3.63;;
13469;SDS011;6807;48.682;9.032;2023-02-21T07:18:00;4.55;;;3.40;;
13469;SDS011;6807;48.682;9.032;2023-02-21T07:20:27;5.82;;;3.40;;
13469;SDS011;6807;48.682;9.032;2023-02-21T07:22:57;4.78;;;2.95;;
13469;SDS011;6807;48.682;9.032;2023-02-21T07:25:25;4.90;;;3.40;;
13469;SDS011;6807;48.682;9.032;2023-02-21T07:27:52;6.18;;;3.50;;
13469;SDS011;6807;48.682;9.032;2023-02-21T07:30:19;5.68;;;4.00;;
13469;SDS011;6807;48.682;9.032;2023-02-21T07:32:47;4.95;;;3.05;;
13469;SDS011;6807;48.682;9.032;2023-02-21T07:35:15;5.50;;;3.78;;
13469;SDS011;6807;48.682;9.032;2023-02-21T07:37:43;6.53;;;4.15;;
13469;SDS011;6807;48.682;9.032;2023-02-21T07:40:10;5.72;;;3.90;;
13469;SDS011;6807;48.682;9.032;2023-02-21T07:42:40;11.90;;;4.40;;
13469;SDS011;6807;48.682;9.032;2023-02-21T07:45:11;8.90;;;4.32;;
13469;SDS011;6807;48.682;9.032;2023-02-21T07:47:43;4.90;;;3.42;;
13469;SDS011;6807;48.682;9.032;2023-02-21T07:50:21;5.25;;;3.25;;
13469;SDS011;6807;48.682;9.032;2023-02-21T07:52:48;5.32;;;3.50;;
13469;SDS011;6807;48.682;9.032;2023-02-21T07:55:19;5.10;;;3.03;;
13469;SDS011;6807;48.682;9.032;2023-02-21T07:57:46;7.97;;;3.50;;
13469;SDS011;6807;48.682;9.032;2023-02-21T08:00:14;5.25;;;3.00;;
13469;SDS011;6807;48.682;9.032;2023-02-21T08:05:17;5.43;;;2.90;;
13469;SDS011;6807;48.682;9.032;2023-02-21T08:07:52;3.28;;;2.97;;
13469;SDS011;6807;48.682;9.032;2023-02-21T08:10:23;6.05;;;3.00;;
13469;SDS011;6807;48.682;9.032;2023-02-21T08:12:51;3.85;;;3.08;;
13469;SDS011;6807;48.682;9.032;2023-02-21T08:15:18;4.10;;;3.10;;
13469;SDS011;6807;48.682;9.032;2023-02-21T08:17:47;5.15;;;2.65;;
13469;SDS011;6807;48.682;9.032;2023-02-21T08:20:18;8.13;;;2.25;;
13469;SDS011;6807;48.682;9.032;2023-02-21T08:22:46;3.97;;;2.28;;
13469;SDS011;6807;48.682;9.032;2023-02-21T08:25:19;4.72;;;2.55;;
13469;SDS011;6807;48.682;9.032;2023-02-21T08:27:47;4.40;;;2.60;;
13469;SDS011;6807;48.682;9.032;2023-02-21T08:30:19;4.90;;;2.30;;
13469;SDS011;6807;48.682;9.032;2023-02-21T08:32:46;7.32;;;2.60;;
13469;SDS011;6807;48.682;9.032;2023-02-21T08:35:16;4.28;;;2.72;;
13469;SDS011;6807;48.682;9.032;2023-02-21T08:37:47;6.22;;;2.88;;
13469;SDS011;6807;48.682;9.032;2023-02-21T08:40:14;5.07;;;2.60;;
13469;SDS011;6807;48.682;9.032;2023-02-21T08:42:42;3.42;;;2.35;;
13469;SDS011;6807;48.682;9.032;2023-02-21T08:45:10;3.92;;;2.50;;
13469;SDS011;6807;48.682;9.032;2023-02-21T08:47:41;3.83;;;2.55;;
13469;SDS011;6807;48.682;9.032;2023-02-21T08:50:09;4.70;;;2.67;;
13469;SDS011;6807;48.682;9.032;2023-02-21T08:52:37;4.85;;;2.85;;
13469;SDS011;6807;48.682;9.032;2023-02-21T08:55:06;4.40;;;2.83;;
13469;SDS011;6807;48.682;9.032;2023-02-21T08:57:46;4.18;;;2.53;;
13469;SDS011;6807;48.682;9.032;2023-02-21T09:00:16;4.95;;;2.65;;
13469;SDS011;6807;48.682;9.032;2023-02-21T09:02:53;6.90;;;2.35;;
13469;SDS011;6807;48.682;9.032;2023-02-21T09:42:59;3.90;;;2.05;;
13469;SDS011;6807;48.682;9.032;2023-02-21T09:45:29;3.58;;;2.03;;
13469;SDS011;6807;48.682;9.032;2023-02-21T09:47:58;4.80;;;2.25;;
13469;SDS011;6807;48.682;9.032;2023-02-21T09:50:30;3.00;;;2.00;;
13469;SDS011;6807;48.682;9.032;2023-02-21T09:52:59;3.90;;;2.30;;
13469;SDS011;6807;48.682;9.032;2023-02-21T09:55:28;3.38;;;1.95;;
13469;SDS011;6807;48.682;9.032;2023-02-21T09:57:55;5.70;;;2.10;;
13469;SDS011;6807;48.682;9.032;2023-02-21T10:00:25;6.32;;;1.98;;
13469;SDS011;6807;48.682;9.032;2023-02-21T10:02:56;2.42;;;1.80;;
13469;SDS011;6807;48.682;9.032;2023-02-21T10:05:32;3.67;;;2.00;;
13469;SDS011;6807;48.682;9.032;2023-02-21T10:08:00;3.35;;;1.83;;
13469;SDS011;6807;48.682;9.032;2023-02-21T10:10:31;3.70;;;1.90;;
13469;SDS011;6807;48.682;9.032;2023-02-21T10:13:03;2.17;;;1.70;;
13469;SDS011;6807;48.682;9.032;2023-02-21T10:15:41;3.35;;;1.40;;
13469;SDS011;6807;48.682;9.032;2023-02-21T10:18:14;1.80;;;1.48;;
13469;SDS011;6807;48.682;9.032;2023-02-21T10:20:51;2.88;;;1.60;;
13469;SDS011;6807;48.682;9.032;2023-02-21T10:23:22;4.43;;;1.63;;
13469;SDS011;6807;48.682;9.032;2023-02-21T10:25:51;1.55;;;1.45;;
13469;SDS011;6807;48.682;9.032;2023-02-21T10:28:20;1.50;;;1.40;;
13469;SDS011;6807;48.682;9.032;2023-02-21T10:30:49;1.23;;;1.15;;
13469;SDS011;6807;48.682;9.032;2023-02-21T10:33:20;2.72;;;1.25;;
13469;SDS011;6807;48.682;9.032;2023-02-21T10:35:47;1.15;;;1.10;;
13469;SDS011;6807;48.682;9.032;2023-02-21T10:38:15;1.98;;;1.30;;
13469;SDS011;6807;48.682;9.032;2023-02-21T10:40:43;2.30;;;1.20;;
13469;SDS011;6807;48.682;9.032;2023-02-21T10:43:12;1.40;;;1.30;;
13469;SDS011;6807;48.682;9.032;2023-02-21T10:45:44;1.27;;;1.17;;
13469;SDS011;6807;48.682;9.032;2023-02-21T10:48:13;1.95;;;1.45;;
13469;SDS011;6807;48.682;9.032;2023-02-21T10:50:43;0.98;;;0.98;;
13469;SDS011;6807;48.682;9.032;2023-02-21T10:53:21;1.10;;;1.00;;
13469;SDS011;6807;48.682;9.032;2023-02-21T10:58:38;1.30;;;1.20;;
13469;SDS011;6807;48.682;9.032;2023-02-21T11:01:12;1.00;;;1.00;;
13469;SDS011;6807;48.682;9.032;2023-02-21T11:03:43;1.40;;;1.30;;
13469;SDS011;6807;48.682;9.032;2023-02-21T11:06:20;2.22;;;1.30;;
13469;SDS011;6807;48.682;9.032;2023-02-21T11:08:47;3.08;;;1.30;;
13469;SDS011;6807;48.682;9.032;2023-02-21T11:11:15;1.42;;;1.13;;
13469;SDS011;6807;48.682;9.032;2023-02-21T11:13:42;1.45;;;1.20;;
13469;SDS011;6807;48.682;9.032;2023-02-21T11:16:10;2.08;;;1.20;;
13469;SDS011;6807;48.682;9.032;2023-02-21T11:18:37;1.60;;;1.05;;
13469;SDS011;6807;48.682;9.032;2023-02-21T11:21:11;1.00;;;1.00;;
13469;SDS011;6807;48.682;9.032;2023-02-21T11:23:42;1.02;;;0.98;;
13469;SDS011;6807;48.682;9.032;2023-02-21T11:26:11;1.30;;;1.20;;
13469;SDS011;6807;48.682;9.032;2023-02-21T11:28:39;1.13;;;1.02;;
13469;SDS011;6807;48.682;9.032;2023-02-21T11:31:12;1.45;;;1.20;;
13469;SDS011;6807;48.682;9.032;2023-02-21T11:33:41;1.20;;;1.10;;
13469;SDS011;6807;48.682;9.032;2023-02-21T11:36:12;1.00;;;0.90;;
13469;SDS011;6807;48.682;9.032;2023-02-21T11:38:39;1.67;;;1.00;;
13469;SDS011;6807;48.682;9.032;2023-02-21T11:41:15;1.67;;;1.20;;
13469;SDS011;6807;48.682;9.032;2023-02-21T11:43:53;1.20;;;1.05;;
13469;SDS011;6807;48.682;9.032;2023-02-21T11:46:25;1.20;;;1.10;;
13469;SDS011;6807;48.682;9.032;2023-02-21T11:49:00;1.80;;;1.30;;
13469;SDS011;6807;48.682;9.032;2023-02-21T11:51:37;1.02;;;1.00;;
13469;SDS011;6807;48.682;9.032;2023-02-21T11:54:08;1.25;;;1.15;;
13469;SDS011;6807;48.682;9.032;2023-02-21T11:56:49;1.40;;;1.30;;
13469;SDS011;6807;48.682;9.032;2023-02-21T11:59:27;1.05;;;1.00;;
13469;SDS011;6807;48.682;9.032;2023-02-21T12:02:17;1.30;;;1.02;;
13469;SDS011;6807;48.682;9.032;2023-02-21T12:04:59;2.20;;;1.10;;
13469;SDS011;6807;48.682;9.032;2023-02-21T12:07:41;2.85;;;1.00;;
13469;SDS011;6807;48.682;9.032;2023-02-21T12:10:26;2.13;;;1.50;;
13469;SDS011;6807;48.682;9.032;2023-02-21T12:13:06;2.20;;;1.10;;
13469;SDS011;6807;48.682;9.032;2023-02-21T12:15:44;1.65;;;1.15;;
13469;SDS011;6807;48.682;9.032;2023-02-21T12:18:24;2.15;;;1.05;;
13469;SDS011;6807;48.682;9.032;2023-02-21T12:21:06;2.20;;;1.10;;
13469;SDS011;6807;48.682;9.032;2023-02-21T12:23:46;1.08;;;0.98;;
13469;SDS011;6807;48.682;9.032;2023-02-21T12:26:25;1.00;;;1.00;;
13469;SDS011;6807;48.682;9.032;2023-02-21T12:29:02;1.00;;;1.00;;
13469;SDS011;6807;48.682;9.032;2023-02-21T12:31:44;1.90;;;1.00;;
13469;SDS011;6807;48.682;9.032;2023-02-21T12:34:26;1.20;;;1.10;;
13469;SDS011;6807;48.682;9.032;2023-02-21T12:37:04;1.20;;;1.10;;
13469;SDS011;6807;48.682;9.032;2023-02-21T12:39:46;1.13;;;1.05;;
13469;SDS011;6807;48.682;9.032;2023-02-21T12:45:33;1.10;;;1.00;;
13469;SDS011;6807;48.682;9.032;2023-02-21T12:48:09;1.00;;;1.00;;
13469;SDS011;6807;48.682;9.032;2023-02-21T12:50:44;1.27;;;0.90;;
13469;SDS011;6807;48.682;9.032;2023-02-21T12:53:16;0.80;;;0.80;;
13469;SDS011;6807;48.682;9.032;2023-02-21T12:55:49;1.30;;;1.20;;
13469;SDS011;6807;48.682;9.032;2023-02-21T12:58:22;1.23;;;0.90;;
13469;SDS011;6807;48.682;9.032;2023-02-21T13:00:56;1.65;;;1.52;;
13469;SDS011;6807;48.682;9.032;2023-02-21T13:03:32;1.50;;;1.10;;
13469;SDS011;6807;48.682;9.032;2023-02-21T13:06:08;1.23;;;1.02;;
13469;SDS011;6807;48.682;9.032;2023-02-21T13:08:44;0.90;;;0.90;;
13469;SDS011;6807;48.682;9.032;2023-02-21T13:11:20;1.42;;;1.20;;
13469;SDS011;6807;48.682;9.032;2023-02-21T13:13:52;4.60;;;1.30;;
13469;SDS011;6807;48.682;9.032;2023-02-21T13:16:24;0.93;;;0.93;;
13469;SDS011;6807;48.682;9.032;2023-02-21T13:18:52;0.80;;;0.80;;
13469;SDS011;6807;48.682;9.032;2023-02-21T13:21:26;1.00;;;1.00;;
13469;SDS011;6807;48.682;9.032;2023-02-21T13:24:03;0.80;;;0.80;;
13469;SDS011;6807;48.682;9.032;2023-02-21T13:41:02;1.40;;;1.20;;
13469;SDS011;6807;48.682;9.032;2023-02-21T14:16:16;1.10;;;1.10;;
13469;SDS011;6807;48.682;9.032;2023-02-21T14:18:48;1.00;;;1.00;;
13469;SDS011;6807;48.682;9.032;2023-02-21T14:21:21;1.20;;;1.05;;
13469;SDS011;6807;48.682;9.032;2023-02-21T14:23:59;1.10;;;0.98;;
13469;SDS011;6807;48.682;9.032;2023-02-21T14:26:42;1.75;;;1.02;;
13469;SDS011;6807;48.682;9.032;2023-02-21T14:53:50;2.70;;;1.27;;
13469;SDS011;6807;48.682;9.032;2023-02-21T14:56:50;1.83;;;1.20;;
13469;SDS011;6807;48.682;9.032;2023-02-21T14:59:42;1.50;;;1.20;;
13469;SDS011;6807;48.682;9.032;2023-02-21T15:02:23;1.58;;;1.25;;
13469;SDS011;6807;48.682;9.032;2023-02-21T15:04:56;1.23;;;1.13;;
13469;SDS011;6807;48.682;9.032;2023-02-21T15:07:49;1.25;;;1.10;;
13469;SDS011;6807;48.682;9.032;2023-02-21T15:10:23;1.20;;;1.10;;
13469;SDS011;6807;48.682;9.032;2023-02-21T15:12:52;1.50;;;1.10;;
13469;SDS011;6807;48.682;9.032;2023-02-21T15:15:21;0.93;;;0.85;;
13469;SDS011;6807;48.682;9.032;2023-02-21T15:17:57;1.30;;;1.20;;
13469;SDS011;6807;48.682;9.032;2023-02-21T15:20:31;1.00;;;1.00;;
13469;SDS011;6807;48.682;9.032;2023-02-21T15:22:59;1.00;;;0.90;;
13469;SDS011;6807;48.682;9.032;2023-02-21T15:25:31;1.00;;;1.00;;
13469;SDS011;6807;48.682;9.032;2023-02-21T15:28:12;1.00;;;1.00;;
13469;SDS011;6807;48.682;9.032;2023-02-21T15:30:54;1.02;;;1.02;;
13469;SDS011;6807;48.682;9.032;2023-02-21T15:33:23;1.30;;;1.10;;
13469;SDS011;6807;48.682;9.032;2023-02-21T15:35:52;1.30;;;1.20;;
13469;SDS011;6807;48.682;9.032;2023-02-21T15:38:26;2.35;;;1.10;;
13469;SDS011;6807;48.682;9.032;2023-02-21T15:41:01;1.15;;;1.05;;
13469;SDS011;6807;48.682;9.032;2023-02-21T15:43:41;1.30;;;1.20;;
13469;SDS011;6807;48.682;9.032;2023-02-21T15:46:12;1.42;;;1.10;;
13469;SDS011;6807;48.682;9.032;2023-02-21T15:48:43;2.85;;;1.10;;
13469;SDS011;6807;48.682;9.032;2023-02-21T15:51:10;1.30;;;0.77;;
13469;SDS011;6807;48.682;9.032;2023-02-21T15:53:38;3.45;;;1.00;;
13469;SDS011;6807;48.682;9.032;2023-02-21T15:56:17;3.20;;;1.30;;
13469;SDS011;6807;48.682;9.032;2023-02-21T16:01:33;0.95;;;0.93;;
13469;SDS011;6807;48.682;9.032;2023-02-21T16:04:13;0.95;;;0.88;;
13469;SDS011;6807;48.682;9.032;2023-02-21T16:06:46;3.63;;;1.90;;
13469;SDS011;6807;48.682;9.032;2023-02-21T16:09:18;1.10;;;1.00;;
13469;SDS011;6807;48.682;9.032;2023-02-21T16:11:50;0.82;;;0.82;;
13469;SDS011;6807;48.682;9.032;2023-02-21T16:14:21;2.17;;;1.40;;
13469;SDS011;6807;48.682;9.032;2023-02-21T16:16:50;2.30;;;1.58;;
13469;SDS011;6807;48.682;9.032;2023-02-21T16:19:22;2.80;;;1.60;;
13469;SDS011;6807;48.682;9.032;2023-02-21T16:21:49;3.70;;;1.50;;
13469;SDS011;6807;48.682;9.032;2023-02-21T16:24:35;3.17;;;1.67;;
13469;SDS011;6807;48.682;9.032;2023-02-21T16:27:05;2.80;;;1.80;;
13469;SDS011;6807;48.682;9.032;2023-02-21T16:29:42;3.70;;;1.85;;
13469;SDS011;6807;48.682;9.032;2023-02-21T16:32:14;3.00;;;1.83;;
13469;SDS011;6807;48.682;9.032;2023-02-21T16:34:42;3.83;;;2.13;;
13469;SDS011;6807;48.682;9.032;2023-02-21T16:37:09;6.47;;;1.83;;
13469;SDS011;6807;48.682;9.032;2023-02-21T16:39:38;4.10;;;1.77;;
13469;SDS011;6807;48.682;9.032;2023-02-21T16:42:07;2.72;;;1.70;;
13469;SDS011;6807;48.682;9.032;2023-02-21T16:44:34;2.05;;;1.60;;
13469;SDS011;6807;48.682;9.032;2023-02-21T16:47:01;2.28;;;2.03;;
13469;SDS011;6807;48.682;9.032;2023-02-21T16:49:29;3.13;;;1.77;;
13469;SDS011;6807;48.682;9.032;2023-02-21T16:51:56;4.07;;;1.88;;
13469;SDS011;6807;48.682;9.032;2023-02-21T16:54:23;2.70;;;1.98;;
13469;SDS011;6807;48.682;9.032;2023-02-21T16:56:51;3.83;;;1.80;;
13469;SDS011;6807;48.682;9.032;2023-02-21T16:59:20;8.50;;;1.85;;
13469;SDS011;6807;48.682;9.032;2023-02-21T17:01:48;7.88;;;2.20;;
13469;SDS011;6807;48.682;9.032;2023-02-21T17:04:15;4.03;;;2.15;;
13469;SDS011;6807;48.682;9.032;2023-02-21T17:06:43;5.68;;;2.08;;
13469;SDS011;6807;48.682;9.032;2023-02-21T17:09:16;2.40;;;1.75;;
13469;SDS011;6807;48.682;9.032;2023-02-21T17:11:43;2.22;;;1.83;;
13469;SDS011;6807;48.682;9.032;2023-02-21T17:14:10;5.72;;;1.90;;
13469;SDS011;6807;48.682;9.032;2023-02-21T17:16:39;4.43;;;2.20;;
13469;SDS011;6807;48.682;9.032;2023-02-21T17:19:09;4.57;;;2.10;;
13469;SDS011;6807;48.682;9.032;2023-02-21T17:21:36;3.90;;;2.42;;
13469;SDS011;6807;48.682;9.032;2023-02-21T17:24:05;10.05;;;2.30;;
13469;SDS011;6807;48.682;9.032;2023-02-21T17:26:32;3.55;;;2.03;;
13469;SDS011;6807;48.682;9.032;2023-02-21T17:29:00;3.88;;;1.88;;
13469;SDS011;6807;48.682;9.032;2023-02-21T17:31:27;2.17;;;1.95;;
13469;SDS011;6807;48.682;9.032;2023-02-21T17:33:56;10.75;;;3.08;;
13469;SDS011;6807;48.682;9.032;2023-02-21T17:36:24;4.60;;;2.40;;
13469;SDS011;6807;48.682;9.032;2023-02-21T17:38:51;5.72;;;2.58;;
13469;SDS011;6807;48.682;9.032;2023-02-21T17:41:18;4.13;;;1.73;;
13469;SDS011;6807;48.682;9.032;2023-02-21T17:43:46;7.28;;;2.28;;
13469;SDS011;6807;48.682;9.032;2023-02-21T17:46:14;3.60;;;1.98;;
13469;SDS011;6807;48.682;9.032;2023-02-21T17:48:41;10.43;;;2.30;;
13469;SDS011;6807;48.682;9.032;2023-02-21T17:51:13;14.63;;;2.53;;
13469;SDS011;6807;48.682;9.032;2023-02-21T17:53:42;7.50;;;3.10;;
13469;SDS011;6807;48.682;9.032;2023-02-21T17:56:09;7.07;;;2.70;;
13469;SDS011;6807;48.682;9.032;2023-02-21T17:58:37;6.18;;;2.53;;
13469;SDS011;6807;48.682;9.032;2023-02-21T18:01:04;5.88;;;2.53;;
13469;SDS011;6807;48.682;9.032;2023-02-21T18:03:31;7.72;;;2.75;;